createdAt,value
2018-07-02T00:02:26.453Z,18.81
2018-07-02T00:04:54.593Z,18.71
2018-07-02T00:07:23.814Z,18.75
2018-07-02T00:09:52.402Z,18.70
2018-07-02T00:12:21.399Z,18.71
2018-07-02T00:14:50.373Z,18.67
2018-07-02T00:17:18.666Z,18.59
2018-07-02T00:19:46.934Z,18.59
2018-07-02T00:22:15.428Z,18.51
2018-07-02T00:24:43.490Z,18.49
2018-07-02T00:27:11.694Z,18.51
2018-07-02T00:29:40.000Z,18.36
2018-07-02T00:32:08.371Z,18.41
2018-07-02T00:34:36.499Z,18.38
2018-07-02T00:37:04.580Z,18.42
2018-07-02T00:39:32.639Z,18.42
2018-07-02T00:42:00.723Z,18.33
2018-07-02T00:44:28.812Z,18.39
2018-07-02T00:46:56.887Z,18.33
2018-07-02T00:49:24.965Z,18.40
2018-07-02T00:51:53.424Z,18.30
2018-07-02T00:54:21.492Z,18.33
2018-07-02T00:56:49.579Z,18.32
2018-07-02T00:59:17.650Z,18.22
2018-07-02T01:01:45.725Z,18.29
2018-07-02T01:04:13.825Z,18.22
2018-07-02T01:06:41.920Z,18.19
2018-07-02T01:09:10.408Z,18.07
2018-07-02T01:11:38.484Z,17.98
2018-07-02T01:14:07.027Z,17.94
2018-07-02T01:16:35.099Z,17.99
2018-07-02T01:19:03.187Z,17.95
2018-07-02T01:21:31.283Z,17.92
2018-07-02T01:23:59.369Z,17.88
2018-07-02T01:26:27.455Z,17.94
2018-07-02T01:28:55.544Z,17.89
2018-07-02T01:31:23.634Z,17.92
2018-07-02T01:33:51.871Z,17.83
2018-07-02T01:36:19.958Z,17.78
2018-07-02T01:38:48.022Z,17.76
2018-07-02T01:41:16.126Z,17.76
2018-07-02T01:43:44.272Z,17.76
2018-07-02T01:46:12.391Z,17.73
2018-07-02T01:48:40.454Z,17.69
2018-07-02T01:51:08.542Z,17.72
2018-07-02T01:53:36.610Z,17.65
2018-07-02T01:56:04.771Z,17.60
2018-07-02T01:58:32.860Z,17.52
2018-07-02T02:01:00.963Z,17.56
2018-07-02T02:03:29.059Z,17.56
2018-07-02T02:05:57.136Z,17.45
2018-07-02T02:08:25.272Z,17.41
2018-07-02T02:10:53.472Z,17.40
2018-07-02T02:13:21.554Z,17.53
2018-07-02T02:15:49.639Z,17.48
2018-07-02T02:18:17.737Z,17.43
2018-07-02T02:20:45.909Z,17.35
2018-07-02T02:23:13.983Z,17.25
2018-07-02T02:25:42.063Z,17.12
2018-07-02T02:28:10.197Z,17.16
2018-07-02T02:30:38.290Z,17.22
2018-07-02T02:33:06.372Z,17.13
2018-07-02T02:35:34.459Z,17.24
2018-07-02T02:38:02.567Z,17.07
2018-07-02T02:40:30.687Z,17.15
2018-07-02T02:42:58.767Z,17.07
2018-07-02T02:45:26.831Z,17.09
2018-07-02T02:47:54.915Z,17.09
2018-07-02T02:50:23.001Z,17.07
2018-07-02T02:52:51.085Z,17.07
2018-07-02T02:55:19.162Z,17.08
2018-07-02T02:57:47.235Z,16.98
2018-07-02T03:00:15.409Z,16.91
2018-07-02T03:02:43.494Z,16.98
2018-07-02T03:05:11.603Z,16.91
2018-07-02T03:07:39.771Z,16.88
2018-07-02T03:10:07.927Z,16.88
2018-07-02T03:12:36.045Z,16.87
2018-07-02T03:15:04.191Z,16.74
2018-07-02T03:17:32.262Z,16.91
2018-07-02T03:20:00.351Z,16.76
2018-07-02T03:22:28.414Z,16.72
2018-07-02T03:24:56.512Z,16.80
2018-07-02T03:27:24.702Z,16.78
2018-07-02T03:29:52.799Z,16.77
2018-07-02T03:32:20.898Z,16.63
2018-07-02T03:34:48.967Z,16.68
2018-07-02T03:37:17.258Z,16.67
2018-07-02T03:39:45.348Z,16.70
2018-07-02T03:42:13.503Z,16.65
2018-07-02T03:44:41.595Z,16.67
2018-07-02T03:47:09.682Z,16.67
2018-07-02T03:49:37.803Z,16.52
2018-07-02T03:52:05.923Z,16.63
2018-07-02T03:54:33.947Z,16.58
2018-07-02T03:57:02.182Z,16.46
2018-07-02T03:59:30.346Z,16.46
2018-07-02T04:01:58.448Z,16.47
2018-07-02T04:04:26.603Z,16.53
2018-07-02T04:06:54.949Z,16.48
2018-07-02T04:09:23.039Z,16.50
2018-07-02T04:11:51.218Z,16.51
2018-07-02T04:14:19.307Z,16.54
2018-07-02T04:16:47.392Z,16.57
2018-07-02T04:19:15.480Z,16.56
2018-07-02T04:21:44.255Z,16.55
2018-07-02T04:24:12.352Z,16.57
2018-07-02T04:26:41.730Z,16.48
2018-07-02T04:29:10.122Z,16.52
2018-07-02T04:31:38.246Z,16.61
2018-07-02T04:34:06.360Z,16.58
2018-07-02T04:36:34.503Z,16.64
2018-07-02T04:39:02.579Z,16.62
2018-07-02T04:41:30.648Z,16.69
2018-07-02T04:43:58.706Z,16.64
2018-07-02T04:46:26.806Z,16.69
2018-07-02T04:48:54.879Z,16.75
2018-07-02T04:51:23.052Z,16.87
2018-07-02T04:53:51.140Z,16.89
2018-07-02T04:56:19.288Z,16.89
2018-07-02T04:58:47.391Z,16.94
2018-07-02T05:01:15.468Z,16.90
2018-07-02T05:03:43.637Z,16.94
2018-07-02T05:06:11.711Z,16.99
2018-07-02T05:08:39.773Z,17.13
2018-07-02T05:11:07.866Z,17.15
2018-07-02T05:13:35.948Z,17.22
2018-07-02T05:16:04.262Z,17.26
2018-07-02T05:18:32.392Z,17.35
2018-07-02T05:21:00.482Z,17.38
2018-07-02T05:23:28.591Z,17.54
2018-07-02T05:25:56.656Z,17.61
2018-07-02T05:28:24.755Z,17.69
2018-07-02T05:30:52.859Z,17.70
2018-07-02T05:33:21.065Z,17.72
2018-07-02T05:35:49.128Z,17.81
2018-07-02T05:38:17.283Z,17.77
2018-07-02T05:40:45.359Z,17.91
2018-07-02T05:43:13.484Z,18.05
2018-07-02T05:45:41.619Z,18.13
2018-07-02T05:48:09.837Z,18.21
2018-07-02T05:50:37.911Z,18.28
2018-07-02T05:53:05.991Z,18.45
2018-07-02T05:55:34.060Z,18.50
2018-07-02T05:58:02.222Z,18.54
2018-07-02T06:00:30.349Z,18.53
2018-07-02T06:02:58.506Z,18.66
2018-07-02T06:05:26.560Z,18.75
2018-07-02T06:07:55.057Z,18.76
2018-07-02T06:10:23.101Z,18.80
2018-07-02T06:12:51.174Z,18.83
2018-07-02T06:15:19.278Z,18.88
2018-07-02T06:17:47.350Z,18.97
2018-07-02T06:20:15.445Z,18.96
2018-07-02T06:22:43.561Z,19.06
2018-07-02T06:25:11.640Z,19.20
2018-07-02T06:27:39.710Z,19.33
2018-07-02T06:30:07.931Z,19.43
2018-07-02T06:32:35.995Z,19.50
2018-07-02T06:35:04.112Z,19.61
2018-07-02T06:37:32.223Z,19.76
2018-07-02T06:40:00.303Z,19.74
2018-07-02T06:42:28.381Z,19.90
2018-07-02T06:44:56.577Z,19.98
2018-07-02T06:47:24.655Z,20.00
2018-07-02T06:49:52.738Z,20.11
2018-07-02T06:52:20.836Z,20.14
2018-07-02T06:54:48.923Z,20.28
2018-07-02T06:57:17.082Z,20.48
2018-07-02T06:59:45.147Z,20.48
2018-07-02T07:02:13.207Z,20.56
2018-07-02T07:04:41.312Z,20.63
2018-07-02T07:07:09.406Z,20.75
2018-07-02T07:09:37.543Z,20.63
2018-07-02T07:12:05.763Z,20.76
2018-07-02T07:14:33.931Z,20.73
2018-07-02T07:17:02.024Z,20.82
2018-07-02T07:19:30.107Z,20.97
2018-07-02T07:21:58.190Z,21.18
2018-07-02T07:24:26.301Z,21.31
2018-07-02T07:26:54.400Z,21.40
2018-07-02T07:29:22.475Z,21.60
2018-07-02T07:31:50.609Z,21.56
2018-07-02T07:34:18.686Z,21.59
2018-07-02T07:36:46.940Z,21.72
2018-07-02T07:39:15.039Z,21.70
2018-07-02T07:41:43.216Z,21.77
2018-07-02T07:44:11.286Z,21.78
2018-07-02T07:46:39.364Z,21.82
2018-07-02T07:49:07.440Z,22.11
2018-07-02T07:51:35.526Z,22.37
2018-07-02T07:54:03.675Z,22.39
2018-07-02T07:56:31.761Z,22.28
2018-07-02T07:58:59.841Z,22.44
2018-07-02T08:01:27.928Z,22.38
2018-07-02T08:03:56.020Z,22.43
2018-07-02T08:06:24.141Z,22.46
2018-07-02T08:08:52.252Z,22.56
2018-07-02T08:11:20.398Z,22.53
2018-07-02T08:13:48.495Z,22.68
2018-07-02T08:16:16.605Z,22.69
2018-07-02T08:18:44.719Z,22.71
2018-07-02T08:21:12.916Z,22.86
2018-07-02T08:23:40.987Z,22.85
2018-07-02T08:26:09.067Z,22.87
2018-07-02T08:28:37.247Z,22.92
2018-07-02T08:31:05.347Z,23.02
2018-07-02T08:33:33.483Z,22.92
2018-07-02T08:36:01.561Z,23.12
2018-07-02T08:38:29.642Z,23.27
2018-07-02T08:40:57.988Z,23.28
2018-07-02T08:43:26.166Z,23.28
2018-07-02T08:45:54.227Z,23.39
2018-07-02T08:48:22.327Z,23.42
2018-07-02T08:50:50.447Z,23.38
2018-07-02T08:53:18.571Z,23.30
2018-07-02T08:55:46.679Z,23.26
2018-07-02T08:58:14.833Z,23.36
2018-07-02T09:00:42.917Z,23.46
2018-07-02T09:03:11.009Z,23.54
2018-07-02T09:05:39.081Z,23.54
2018-07-02T09:08:07.216Z,23.62
2018-07-02T09:10:35.277Z,23.53
2018-07-02T09:13:03.360Z,23.66
2018-07-02T09:15:31.459Z,23.74
2018-07-02T09:17:59.535Z,23.89
2018-07-02T09:20:27.611Z,23.80
2018-07-02T09:22:55.936Z,23.72
2018-07-02T09:25:24.076Z,23.85
2018-07-02T09:27:52.216Z,23.85
2018-07-02T09:30:20.312Z,24.00
2018-07-02T09:32:48.390Z,23.98
2018-07-02T09:35:16.502Z,23.96
2018-07-02T09:37:44.586Z,24.03
2018-07-02T09:40:12.700Z,24.07
2018-07-02T09:42:40.844Z,24.12
2018-07-02T09:45:09.848Z,24.07
2018-07-02T09:47:37.943Z,24.20
2018-07-02T09:50:06.026Z,24.28
2018-07-02T09:52:34.276Z,24.36
2018-07-02T09:55:02.368Z,24.35
2018-07-02T09:57:30.464Z,24.50
2018-07-02T09:59:58.620Z,24.47
2018-07-02T10:02:26.710Z,24.44
2018-07-02T10:04:54.834Z,24.43
2018-07-02T10:07:22.963Z,24.51
2018-07-02T10:09:51.031Z,24.51
2018-07-02T10:12:19.123Z,24.52
2018-07-02T10:14:47.207Z,24.46
2018-07-02T10:17:15.315Z,24.70
2018-07-02T10:19:43.423Z,24.75
2018-07-02T10:22:11.523Z,24.80
2018-07-02T10:24:39.743Z,24.80
2018-07-02T10:27:07.906Z,24.60
2018-07-02T10:29:36.081Z,24.68
2018-07-02T10:32:04.151Z,24.56
2018-07-02T10:34:32.272Z,24.59
2018-07-02T10:37:00.355Z,24.70
2018-07-02T10:39:28.457Z,24.72
2018-07-02T10:41:56.568Z,24.69
2018-07-02T10:44:24.630Z,24.84
2018-07-02T10:46:52.837Z,24.81
2018-07-02T10:49:20.900Z,24.96
2018-07-02T10:51:48.991Z,24.78
2018-07-02T10:54:17.086Z,24.85
2018-07-02T10:56:45.158Z,24.79
2018-07-02T10:59:13.285Z,24.86
2018-07-02T11:01:41.362Z,24.96
2018-07-02T11:04:09.437Z,24.59
2018-07-02T11:06:37.510Z,24.75
2018-07-02T11:09:06.926Z,24.97
2018-07-02T11:11:35.161Z,25.14
2018-07-02T11:14:03.248Z,25.23
2018-07-02T11:16:31.329Z,25.40
2018-07-02T11:18:59.455Z,25.32
2018-07-02T11:21:27.546Z,25.41
2018-07-02T11:23:55.850Z,25.34
2018-07-02T11:26:23.927Z,25.42
2018-07-02T11:28:52.055Z,25.43
2018-07-02T11:31:20.156Z,25.32
2018-07-02T11:33:48.276Z,25.28
2018-07-02T11:36:16.360Z,25.28
2018-07-02T11:38:44.460Z,25.44
2018-07-02T11:41:12.843Z,25.44
2018-07-02T11:43:40.949Z,25.40
2018-07-02T11:46:09.057Z,25.44
2018-07-02T11:48:37.130Z,25.54
2018-07-02T11:51:05.290Z,25.65
2018-07-02T11:53:33.427Z,25.71
2018-07-02T11:56:01.517Z,25.70
2018-07-02T11:58:29.605Z,25.69
2018-07-02T12:00:57.682Z,25.60
2018-07-02T12:03:25.823Z,25.59
2018-07-02T12:05:53.912Z,25.61
2018-07-02T12:08:21.995Z,25.49
2018-07-02T12:10:50.169Z,25.52
2018-07-02T12:13:18.291Z,25.64
2018-07-02T12:15:46.379Z,25.83
2018-07-02T12:18:14.464Z,25.72
2018-07-02T12:20:42.552Z,25.76
2018-07-02T12:23:11.990Z,25.79
2018-07-02T12:25:40.655Z,25.84
2018-07-02T12:28:08.746Z,25.84
2018-07-02T12:30:36.839Z,25.91
2018-07-02T12:33:05.004Z,25.98
2018-07-02T12:35:33.121Z,25.88
2018-07-02T12:38:01.285Z,26.00
2018-07-02T12:40:29.379Z,26.06
2018-07-02T12:42:57.551Z,26.01
2018-07-02T12:45:25.636Z,26.09
2018-07-02T12:47:54.983Z,26.14
2018-07-02T12:50:23.091Z,26.38
2018-07-02T12:52:51.432Z,26.34
2018-07-02T12:55:19.543Z,26.30
2018-07-02T12:57:47.630Z,26.26
2018-07-02T13:00:16.017Z,26.31
2018-07-02T13:02:44.155Z,26.53
2018-07-02T13:05:12.239Z,26.52
2018-07-02T13:07:40.393Z,26.49
2018-07-02T13:10:08.495Z,26.66
2018-07-02T13:12:36.631Z,26.66
2018-07-02T13:15:05.039Z,26.63
2018-07-02T13:17:33.119Z,26.52
2018-07-02T13:20:01.236Z,26.52
2018-07-02T13:22:29.370Z,26.66
2018-07-02T13:24:57.471Z,26.78
2018-07-02T13:27:25.555Z,26.75
2018-07-02T13:29:53.675Z,26.78
2018-07-02T13:32:21.820Z,26.80
2018-07-02T13:34:50.571Z,26.88
2018-07-02T13:37:18.687Z,26.95
2018-07-02T13:39:46.807Z,26.91
2018-07-02T13:42:14.883Z,26.94
2018-07-02T13:44:43.006Z,26.91
2018-07-02T13:47:11.109Z,26.98
2018-07-02T13:49:39.190Z,26.99
2018-07-02T13:52:07.299Z,26.90
2018-07-02T13:54:35.398Z,27.03
2018-07-02T13:57:03.473Z,27.03
2018-07-02T13:59:31.543Z,27.13
2018-07-02T14:01:59.708Z,27.05
2018-07-02T14:04:27.792Z,27.11
2018-07-02T14:06:56.230Z,27.21
2018-07-02T14:09:24.315Z,27.28
2018-07-02T14:11:52.657Z,27.25
2018-07-02T14:14:20.756Z,27.23
2018-07-02T14:16:48.832Z,27.25
2018-07-02T14:19:16.960Z,27.31
2018-07-02T14:21:45.297Z,27.40
2018-07-02T14:24:13.451Z,27.37
2018-07-02T14:26:41.511Z,27.50
2018-07-02T14:29:09.599Z,27.67
2018-07-02T14:31:37.820Z,27.49
2018-07-02T14:34:05.911Z,27.38
2018-07-02T14:36:33.991Z,27.54
2018-07-02T14:39:02.104Z,27.50
2018-07-02T14:41:30.200Z,27.53
2018-07-02T14:43:58.305Z,27.51
2018-07-02T14:46:26.617Z,27.67
2018-07-02T14:48:54.726Z,27.69
2018-07-02T14:51:22.867Z,27.64
2018-07-02T14:53:50.984Z,27.49
2018-07-02T14:56:19.162Z,27.53
2018-07-02T14:58:47.320Z,27.67
2018-07-02T15:01:15.406Z,27.76
2018-07-02T15:03:43.609Z,27.76
2018-07-02T15:06:11.775Z,27.76
2018-07-02T15:08:39.854Z,27.81
2018-07-02T15:11:07.971Z,27.89
2018-07-02T15:13:36.055Z,27.93
2018-07-02T15:16:04.122Z,28.08
2018-07-02T15:18:32.210Z,28.15
2018-07-02T15:21:00.340Z,28.07
2018-07-02T15:23:28.523Z,28.00
2018-07-02T15:25:56.612Z,28.13
2018-07-02T15:28:24.667Z,28.02
2018-07-02T15:30:52.746Z,28.03
2018-07-02T15:33:20.828Z,28.06
2018-07-02T15:35:48.941Z,28.01
2018-07-02T15:38:16.997Z,28.17
2018-07-02T15:40:45.092Z,28.19
2018-07-02T15:43:13.176Z,27.99
2018-07-02T15:45:41.340Z,28.18
2018-07-02T15:48:09.507Z,28.11
2018-07-02T15:50:37.583Z,28.20
2018-07-02T15:53:30.412Z,28.22
2018-07-02T15:55:58.596Z,28.16
2018-07-02T15:58:26.731Z,28.27
2018-07-02T16:00:54.857Z,28.32
2018-07-02T16:03:23.323Z,28.35
2018-07-02T16:05:51.423Z,28.36
2018-07-02T16:08:19.523Z,28.40
2018-07-02T16:10:47.599Z,28.40
2018-07-02T16:13:15.661Z,28.46
2018-07-02T16:15:43.775Z,28.42
2018-07-02T16:18:11.915Z,28.54
2018-07-02T16:20:40.056Z,28.61
2018-07-02T16:23:08.132Z,28.63
2018-07-02T16:25:36.206Z,28.58
2018-07-02T16:28:04.284Z,28.70
2018-07-02T16:30:32.419Z,28.88
2018-07-02T16:33:00.514Z,28.85
2018-07-02T16:35:28.616Z,28.84
2018-07-02T16:37:56.683Z,28.90
2018-07-02T16:40:24.748Z,29.15
2018-07-02T16:42:52.898Z,29.27
2018-07-02T16:45:21.525Z,29.59
2018-07-02T16:47:49.617Z,29.79
2018-07-02T16:50:17.668Z,29.50
2018-07-02T16:52:45.748Z,29.63
2018-07-02T16:55:13.891Z,29.64
2018-07-02T16:57:42.049Z,29.71
2018-07-02T17:00:10.168Z,29.63
2018-07-02T17:02:38.263Z,30.34
2018-07-02T17:05:06.652Z,30.87
2018-07-02T17:07:34.751Z,31.30
2018-07-02T17:10:02.819Z,31.55
2018-07-02T17:12:30.891Z,31.79
2018-07-02T17:14:58.983Z,31.91
2018-07-02T17:17:27.058Z,31.94
2018-07-02T17:19:55.130Z,31.85
2018-07-02T17:22:23.246Z,31.74
2018-07-02T17:24:51.331Z,31.89
2018-07-02T17:27:19.409Z,32.17
2018-07-02T17:29:47.495Z,32.52
2018-07-02T17:32:15.563Z,33.15
2018-07-02T17:34:43.679Z,33.58
2018-07-02T17:37:11.797Z,33.17
2018-07-02T17:39:39.900Z,32.93
2018-07-02T17:42:08.007Z,33.16
2018-07-02T17:44:36.073Z,33.07
2018-07-02T17:47:04.168Z,33.12
2018-07-02T17:49:32.281Z,32.91
2018-07-02T17:52:00.429Z,32.09
2018-07-02T17:54:28.612Z,32.24
2018-07-02T17:56:56.856Z,32.04
2018-07-02T17:59:25.330Z,31.49
2018-07-02T18:01:53.495Z,31.11
2018-07-02T18:04:21.727Z,30.42
2018-07-02T18:06:49.874Z,29.69
2018-07-02T18:09:18.042Z,29.39
2018-07-02T18:11:46.281Z,29.39
2018-07-02T18:14:15.373Z,29.30
2018-07-02T18:16:43.535Z,29.36
2018-07-02T18:19:12.532Z,29.35
2018-07-02T18:21:43.078Z,29.32
2018-07-02T18:24:11.321Z,29.11
2018-07-02T18:26:39.461Z,28.94
2018-07-02T18:29:07.650Z,28.64
2018-07-02T18:31:35.760Z,28.49
2018-07-02T18:34:04.013Z,28.57
2018-07-02T18:36:32.598Z,28.66
2018-07-02T18:39:00.888Z,28.60
2018-07-02T18:41:29.041Z,28.38
2018-07-02T18:43:57.351Z,28.08
2018-07-02T18:46:25.854Z,27.94
2018-07-02T18:48:54.680Z,27.79
2018-07-02T18:51:23.033Z,27.64
2018-07-02T18:53:51.467Z,27.54
2018-07-02T18:56:19.618Z,27.39
2018-07-02T18:58:47.759Z,27.21
2018-07-02T19:01:15.886Z,27.13
2018-07-02T19:03:44.010Z,26.94
2018-07-02T19:06:12.202Z,26.82
2018-07-02T19:08:40.498Z,26.77
2018-07-02T19:11:08.598Z,26.61
2018-07-02T19:13:36.803Z,26.57
2018-07-02T19:16:05.689Z,26.50
2018-07-02T19:18:34.937Z,26.48
2018-07-02T19:21:03.976Z,26.39
2018-07-02T19:23:32.250Z,26.29
2018-07-02T19:26:00.521Z,26.24
2018-07-02T19:28:28.725Z,26.16
2018-07-02T19:30:56.822Z,26.06
2018-07-02T19:33:24.954Z,25.98
2018-07-02T19:35:55.234Z,25.85
2018-07-02T19:38:23.414Z,25.89
2018-07-02T19:40:52.596Z,25.82
2018-07-02T19:43:20.899Z,25.67
2018-07-02T19:45:49.366Z,25.56
2018-07-02T19:48:17.633Z,25.53
2018-07-02T19:50:45.876Z,25.36
2018-07-02T19:53:14.157Z,25.27
2018-07-02T19:55:43.259Z,25.13
2018-07-02T19:58:11.418Z,25.13
2018-07-02T20:00:40.051Z,25.03
2018-07-02T20:03:08.230Z,25.02
2018-07-02T20:05:36.404Z,24.92
2018-07-02T20:08:04.589Z,24.84
2018-07-02T20:10:33.059Z,24.87
2018-07-02T20:13:01.206Z,24.74
2018-07-02T20:15:29.405Z,24.66
2018-07-02T20:18:08.014Z,24.54
2018-07-02T20:20:36.366Z,24.48
2018-07-02T20:25:46.092Z,24.35
2018-07-02T20:28:14.918Z,24.28
2018-07-02T20:30:43.220Z,24.24
2018-07-02T20:33:18.539Z,24.14
2018-07-02T20:35:46.823Z,24.04
2018-07-02T20:38:15.312Z,24.03
2018-07-02T20:40:43.498Z,23.88
2018-07-02T20:43:12.135Z,23.81
2018-07-02T20:45:41.029Z,23.74
2018-07-02T20:48:09.207Z,23.65
2018-07-02T20:50:37.319Z,23.59
2018-07-02T20:53:20.024Z,23.59
2018-07-02T20:55:48.560Z,23.57
2018-07-02T20:58:17.479Z,23.41
2018-07-02T21:00:48.046Z,23.37
2018-07-02T21:03:22.849Z,23.32
2018-07-02T21:05:52.825Z,23.20
2018-07-02T21:08:22.959Z,23.12
2018-07-02T21:10:56.408Z,23.11
2018-07-02T21:13:30.321Z,23.13
2018-07-02T21:15:59.207Z,23.05
2018-07-02T21:18:38.758Z,23.00
2018-07-02T21:21:06.883Z,22.88
2018-07-02T21:28:48.415Z,22.82
2018-07-02T21:31:28.652Z,22.74
2018-07-02T21:39:29.567Z,22.43
2018-07-02T21:42:02.027Z,22.34
2018-07-02T21:44:32.214Z,22.41
2018-07-02T21:47:00.652Z,22.24
2018-07-02T21:49:28.956Z,22.17
2018-07-02T21:51:57.392Z,22.17
2018-07-02T21:54:25.599Z,22.10
2018-07-02T21:56:53.823Z,22.08
2018-07-02T21:59:22.197Z,22.06
2018-07-02T22:01:50.397Z,22.01
2018-07-02T22:04:20.330Z,21.97
2018-07-02T22:06:50.767Z,21.81
2018-07-02T22:09:18.978Z,21.92
2018-07-02T22:11:47.124Z,21.84
2018-07-02T22:14:15.255Z,21.71
2018-07-02T22:16:43.438Z,21.67
2018-07-02T22:21:38.807Z,21.66
2018-07-02T22:24:06.884Z,21.67
2018-07-02T22:26:36.753Z,21.61
2018-07-02T22:29:05.556Z,21.54
2018-07-02T22:31:34.865Z,21.62
2018-07-02T22:34:03.281Z,21.52
2018-07-02T22:36:31.439Z,21.43
2018-07-02T22:38:59.740Z,21.41
2018-07-02T22:41:28.563Z,21.30
2018-07-02T22:43:57.299Z,21.29
2018-07-02T22:46:25.880Z,21.26
2018-07-02T22:48:54.089Z,21.24
2018-07-02T22:51:22.315Z,21.22
2018-07-02T22:53:50.733Z,21.21
2018-07-02T22:56:19.030Z,21.17
2018-07-02T22:58:47.235Z,21.01
2018-07-02T23:01:15.459Z,20.99
2018-07-02T23:03:43.589Z,21.01
2018-07-02T23:06:11.708Z,20.93
2018-07-02T23:08:39.932Z,20.91
2018-07-02T23:11:08.658Z,20.91
2018-07-02T23:13:36.852Z,20.86
2018-07-02T23:16:05.558Z,20.78
2018-07-02T23:18:34.465Z,20.65
2018-07-02T23:21:03.032Z,20.76
2018-07-02T23:23:32.217Z,20.71
2018-07-02T23:26:00.380Z,20.79
2018-07-02T23:28:28.558Z,20.70
2018-07-02T23:30:56.691Z,20.62
2018-07-02T23:33:24.860Z,20.40
2018-07-02T23:35:53.017Z,20.53
2018-07-02T23:38:21.542Z,20.41
2018-07-02T23:40:49.790Z,20.27
2018-07-02T23:43:18.087Z,20.47
2018-07-02T23:45:46.566Z,20.35
2018-07-02T23:48:14.865Z,20.39
2018-07-02T23:50:42.983Z,20.39
2018-07-02T23:53:11.361Z,20.18
2018-07-02T23:55:40.511Z,20.19
2018-07-02T23:58:08.883Z,20.17
